sensor_id;sensor_type;location;lat;lon;timestamp;P1;durP1;ratioP1;P2;durP2;ratioP2
20110;SDS011;10216;42.658;23.248;2023-01-16T00:01:15;23.10;;;13.50;;
20110;SDS011;10216;42.658;23.248;2023-01-16T00:03:40;24.13;;;14.30;;
20110;SDS011;10216;42.658;23.248;2023-01-16T00:06:05;23.67;;;13.87;;
20110;SDS011;10216;42.658;23.248;2023-01-16T00:08:31;29.80;;;14.30;;
20110;SDS011;10216;42.658;23.248;2023-01-16T00:10:58;26.73;;;13.33;;
20110;SDS011;10216;42.658;23.248;2023-01-16T00:13:24;28.13;;;15.30;;
20110;SDS011;10216;42.658;23.248;2023-01-16T00:15:50;26.47;;;13.53;;
20110;SDS011;10216;42.658;23.248;2023-01-16T00:18:15;30.50;;;15.00;;
20110;SDS011;10216;42.658;23.248;2023-01-16T00:20:41;30.37;;;15.03;;
20110;SDS011;10216;42.658;23.248;2023-01-16T00:23:06;29.87;;;14.80;;
20110;SDS011;10216;42.658;23.248;2023-01-16T00:25:31;25.87;;;14.47;;
20110;SDS011;10216;42.658;23.248;2023-01-16T00:27:57;26.60;;;14.70;;
20110;SDS011;10216;42.658;23.248;2023-01-16T00:30:22;24.43;;;13.80;;
20110;SDS011;10216;42.658;23.248;2023-01-16T00:32:50;26.17;;;14.80;;
20110;SDS011;10216;42.658;23.248;2023-01-16T00:35:15;28.60;;;15.67;;
20110;SDS011;10216;42.658;23.248;2023-01-16T00:37:40;23.83;;;14.43;;
20110;SDS011;10216;42.658;23.248;2023-01-16T00:40:06;27.53;;;14.90;;
20110;SDS011;10216;42.658;23.248;2023-01-16T00:42:31;27.20;;;15.23;;
20110;SDS011;10216;42.658;23.248;2023-01-16T00:44:56;27.77;;;13.87;;
20110;SDS011;10216;42.658;23.248;2023-01-16T00:47:22;28.47;;;14.57;;
20110;SDS011;10216;42.658;23.248;2023-01-16T00:49:47;25.47;;;14.33;;
20110;SDS011;10216;42.658;23.248;2023-01-16T00:52:12;29.10;;;15.10;;
20110;SDS011;10216;42.658;23.248;2023-01-16T00:54:37;25.20;;;13.90;;
20110;SDS011;10216;42.658;23.248;2023-01-16T00:57:03;25.50;;;14.20;;
20110;SDS011;10216;42.658;23.248;2023-01-16T00:59:28;28.77;;;15.07;;
20110;SDS011;10216;42.658;23.248;2023-01-16T01:01:53;27.77;;;15.53;;
20110;SDS011;10216;42.658;23.248;2023-01-16T01:04:18;31.43;;;16.67;;
20110;SDS011;10216;42.658;23.248;2023-01-16T01:06:44;26.13;;;15.73;;
20110;SDS011;10216;42.658;23.248;2023-01-16T01:09:09;36.80;;;18.37;;
20110;SDS011;10216;42.658;23.248;2023-01-16T01:11:34;29.73;;;16.73;;
20110;SDS011;10216;42.658;23.248;2023-01-16T01:13:59;36.27;;;18.07;;
20110;SDS011;10216;42.658;23.248;2023-01-16T01:16:24;41.07;;;19.23;;
20110;SDS011;10216;42.658;23.248;2023-01-16T01:18:52;34.27;;;19.17;;
20110;SDS011;10216;42.658;23.248;2023-01-16T01:21:17;33.03;;;18.40;;
20110;SDS011;10216;42.658;23.248;2023-01-16T01:23:42;36.73;;;20.13;;
20110;SDS011;10216;42.658;23.248;2023-01-16T01:26:12;45.07;;;20.27;;
20110;SDS011;10216;42.658;23.248;2023-01-16T01:28:37;41.60;;;20.77;;
20110;SDS011;10216;42.658;23.248;2023-01-16T01:31:03;44.47;;;21.27;;
20110;SDS011;10216;42.658;23.248;2023-01-16T01:33:29;54.13;;;24.43;;
20110;SDS011;10216;42.658;23.248;2023-01-16T01:35:54;50.17;;;23.27;;
20110;SDS011;10216;42.658;23.248;2023-01-16T01:38:19;59.70;;;25.33;;
20110;SDS011;10216;42.658;23.248;2023-01-16T01:40:44;72.43;;;23.97;;
20110;SDS011;10216;42.658;23.248;2023-01-16T01:43:13;69.93;;;25.90;;
20110;SDS011;10216;42.658;23.248;2023-01-16T01:45:39;64.63;;;25.87;;
20110;SDS011;10216;42.658;23.248;2023-01-16T01:50:47;229.73;;;28.23;;
20110;SDS011;10216;42.658;23.248;2023-01-16T01:55:41;199.97;;;31.33;;
20110;SDS011;10216;42.658;23.248;2023-01-16T01:58:08;252.40;;;36.07;;
20110;SDS011;10216;42.658;23.248;2023-01-16T02:00:34;329.60;;;33.07;;
20110;SDS011;10216;42.658;23.248;2023-01-16T02:03:02;159.80;;;27.17;;
20110;SDS011;10216;42.658;23.248;2023-01-16T02:05:31;123.07;;;25.67;;
20110;SDS011;10216;42.658;23.248;2023-01-16T02:07:57;182.60;;;25.60;;
20110;SDS011;10216;42.658;23.248;2023-01-16T02:10:45;178.03;;;23.47;;
20110;SDS011;10216;42.658;23.248;2023-01-16T02:13:09;111.83;;;22.07;;
20110;SDS011;10216;42.658;23.248;2023-01-16T02:15:34;123.20;;;21.73;;
20110;SDS011;10216;42.658;23.248;2023-01-16T02:18:00;61.53;;;18.77;;
20110;SDS011;10216;42.658;23.248;2023-01-16T02:20:48;43.93;;;18.40;;
20110;SDS011;10216;42.658;23.248;2023-01-16T02:30:59;53.07;;;17.13;;
20110;SDS011;10216;42.658;23.248;2023-01-16T02:49:00;23.17;;;13.37;;
20110;SDS011;10216;42.658;23.248;2023-01-16T02:51:34;23.80;;;13.07;;
20110;SDS011;10216;42.658;23.248;2023-01-16T02:54:08;19.63;;;11.70;;
20110;SDS011;10216;42.658;23.248;2023-01-16T02:56:37;18.73;;;10.50;;
20110;SDS011;10216;42.658;23.248;2023-01-16T02:59:07;17.73;;;10.67;;
20110;SDS011;10216;42.658;23.248;2023-01-16T03:01:34;18.17;;;11.17;;
20110;SDS011;10216;42.658;23.248;2023-01-16T03:11:27;19.17;;;10.13;;
20110;SDS011;10216;42.658;23.248;2023-01-16T03:16:41;17.40;;;9.83;;
20110;SDS011;10216;42.658;23.248;2023-01-16T03:26:38;20.80;;;11.33;;
20110;SDS011;10216;42.658;23.248;2023-01-16T03:31:49;20.27;;;11.50;;
20110;SDS011;10216;42.658;23.248;2023-01-16T03:34:18;22.30;;;12.20;;
20110;SDS011;10216;42.658;23.248;2023-01-16T03:36:49;21.70;;;12.37;;
20110;SDS011;10216;42.658;23.248;2023-01-16T03:39:16;18.70;;;11.30;;
20110;SDS011;10216;42.658;23.248;2023-01-16T03:41:42;21.70;;;11.50;;
20110;SDS011;10216;42.658;23.248;2023-01-16T03:44:09;19.43;;;11.17;;
20110;SDS011;10216;42.658;23.248;2023-01-16T03:46:39;18.37;;;10.83;;
20110;SDS011;10216;42.658;23.248;2023-01-16T03:49:07;18.83;;;10.80;;
20110;SDS011;10216;42.658;23.248;2023-01-16T03:51:35;19.77;;;10.73;;
20110;SDS011;10216;42.658;23.248;2023-01-16T03:56:37;16.03;;;9.83;;
20110;SDS011;10216;42.658;23.248;2023-01-16T03:59:05;18.37;;;11.20;;
20110;SDS011;10216;42.658;23.248;2023-01-16T04:01:38;17.57;;;10.63;;
20110;SDS011;10216;42.658;23.248;2023-01-16T04:04:08;17.20;;;10.13;;
20110;SDS011;10216;42.658;23.248;2023-01-16T04:09:05;25.80;;;14.10;;
20110;SDS011;10216;42.658;23.248;2023-01-16T04:11:33;30.10;;;14.97;;
20110;SDS011;10216;42.658;23.248;2023-01-16T04:13:59;54.10;;;16.87;;
20110;SDS011;10216;42.658;23.248;2023-01-16T04:16:26;63.60;;;19.83;;
20110;SDS011;10216;42.658;23.248;2023-01-16T04:18:51;49.87;;;20.50;;
20110;SDS011;10216;42.658;23.248;2023-01-16T04:21:18;42.80;;;19.03;;
20110;SDS011;10216;42.658;23.248;2023-01-16T04:23:43;40.63;;;17.87;;
20110;SDS011;10216;42.658;23.248;2023-01-16T04:26:09;51.27;;;18.40;;
20110;SDS011;10216;42.658;23.248;2023-01-16T04:28:36;49.87;;;19.27;;
20110;SDS011;10216;42.658;23.248;2023-01-16T04:31:01;122.80;;;21.13;;
20110;SDS011;10216;42.658;23.248;2023-01-16T04:33:27;109.03;;;20.57;;
20110;SDS011;10216;42.658;23.248;2023-01-16T04:35:52;164.17;;;20.33;;
20110;SDS011;10216;42.658;23.248;2023-01-16T04:38:17;104.20;;;19.63;;
20110;SDS011;10216;42.658;23.248;2023-01-16T04:40:42;71.43;;;20.13;;
20110;SDS011;10216;42.658;23.248;2023-01-16T04:43:08;70.20;;;21.27;;
20110;SDS011;10216;42.658;23.248;2023-01-16T04:45:33;41.57;;;19.80;;
20110;SDS011;10216;42.658;23.248;2023-01-16T04:47:58;39.63;;;18.57;;
20110;SDS011;10216;42.658;23.248;2023-01-16T04:50:23;30.97;;;16.43;;
20110;SDS011;10216;42.658;23.248;2023-01-16T04:52:49;23.30;;;15.60;;
20110;SDS011;10216;42.658;23.248;2023-01-16T04:55:14;29.93;;;16.17;;
20110;SDS011;10216;42.658;23.248;2023-01-16T04:57:39;30.80;;;16.60;;
20110;SDS011;10216;42.658;23.248;2023-01-16T05:00:06;30.20;;;16.33;;
20110;SDS011;10216;42.658;23.248;2023-01-16T05:02:31;31.53;;;16.83;;
20110;SDS011;10216;42.658;23.248;2023-01-16T05:04:57;32.60;;;16.43;;
20110;SDS011;10216;42.658;23.248;2023-01-16T05:07:22;35.90;;;18.37;;
20110;SDS011;10216;42.658;23.248;2023-01-16T05:09:47;30.00;;;15.70;;
20110;SDS011;10216;42.658;23.248;2023-01-16T05:12:12;36.23;;;18.90;;
20110;SDS011;10216;42.658;23.248;2023-01-16T05:14:38;54.80;;;27.87;;
20110;SDS011;10216;42.658;23.248;2023-01-16T05:17:03;48.03;;;26.87;;
20110;SDS011;10216;42.658;23.248;2023-01-16T05:19:28;46.47;;;25.57;;
20110;SDS011;10216;42.658;23.248;2023-01-16T05:21:53;38.73;;;20.43;;
20110;SDS011;10216;42.658;23.248;2023-01-16T05:24:19;44.03;;;22.47;;
20110;SDS011;10216;42.658;23.248;2023-01-16T05:26:44;47.53;;;22.10;;
20110;SDS011;10216;42.658;23.248;2023-01-16T05:29:09;46.03;;;22.13;;
20110;SDS011;10216;42.658;23.248;2023-01-16T05:31:34;26.77;;;14.80;;
20110;SDS011;10216;42.658;23.248;2023-01-16T05:33:59;22.57;;;12.07;;
20110;SDS011;10216;42.658;23.248;2023-01-16T05:36:25;21.43;;;11.63;;
20110;SDS011;10216;42.658;23.248;2023-01-16T05:38:50;19.87;;;10.63;;
20110;SDS011;10216;42.658;23.248;2023-01-16T05:41:16;21.33;;;12.00;;
20110;SDS011;10216;42.658;23.248;2023-01-16T05:43:41;24.17;;;12.63;;
20110;SDS011;10216;42.658;23.248;2023-01-16T05:46:06;26.30;;;14.47;;
20110;SDS011;10216;42.658;23.248;2023-01-16T05:48:32;27.10;;;14.27;;
20110;SDS011;10216;42.658;23.248;2023-01-16T05:50:57;21.53;;;12.40;;
20110;SDS011;10216;42.658;23.248;2023-01-16T05:53:22;25.20;;;12.03;;
20110;SDS011;10216;42.658;23.248;2023-01-16T05:55:52;29.27;;;12.03;;
20110;SDS011;10216;42.658;23.248;2023-01-16T05:58:18;21.10;;;12.43;;
20110;SDS011;10216;42.658;23.248;2023-01-16T06:00:43;34.80;;;19.60;;
20110;SDS011;10216;42.658;23.248;2023-01-16T06:03:08;42.67;;;22.43;;
20110;SDS011;10216;42.658;23.248;2023-01-16T06:05:34;36.10;;;19.90;;
20110;SDS011;10216;42.658;23.248;2023-01-16T06:07:59;28.83;;;16.20;;
20110;SDS011;10216;42.658;23.248;2023-01-16T06:10:25;21.53;;;13.40;;
20110;SDS011;10216;42.658;23.248;2023-01-16T06:12:50;24.50;;;12.87;;
20110;SDS011;10216;42.658;23.248;2023-01-16T06:15:15;19.10;;;11.57;;
20110;SDS011;10216;42.658;23.248;2023-01-16T06:17:41;17.77;;;11.07;;
20110;SDS011;10216;42.658;23.248;2023-01-16T06:20:06;19.57;;;11.90;;
20110;SDS011;10216;42.658;23.248;2023-01-16T06:22:31;22.70;;;11.90;;
20110;SDS011;10216;42.658;23.248;2023-01-16T06:24:57;20.20;;;11.93;;
20110;SDS011;10216;42.658;23.248;2023-01-16T06:27:22;26.47;;;14.97;;
20110;SDS011;10216;42.658;23.248;2023-01-16T06:29:47;22.50;;;14.07;;
20110;SDS011;10216;42.658;23.248;2023-01-16T06:32:12;26.33;;;15.50;;
20110;SDS011;10216;42.658;23.248;2023-01-16T06:34:38;29.60;;;16.97;;
20110;SDS011;10216;42.658;23.248;2023-01-16T06:37:03;29.97;;;16.63;;
20110;SDS011;10216;42.658;23.248;2023-01-16T06:39:28;29.37;;;17.90;;
20110;SDS011;10216;42.658;23.248;2023-01-16T06:41:53;25.93;;;15.70;;
20110;SDS011;10216;42.658;23.248;2023-01-16T06:44:19;30.07;;;17.30;;
20110;SDS011;10216;42.658;23.248;2023-01-16T06:46:44;30.57;;;19.50;;
20110;SDS011;10216;42.658;23.248;2023-01-16T06:49:10;35.00;;;20.00;;
20110;SDS011;10216;42.658;23.248;2023-01-16T06:51:38;30.83;;;19.20;;
20110;SDS011;10216;42.658;23.248;2023-01-16T06:54:03;38.07;;;23.33;;
20110;SDS011;10216;42.658;23.248;2023-01-16T06:56:29;43.33;;;25.07;;
20110;SDS011;10216;42.658;23.248;2023-01-16T06:58:55;68.57;;;36.53;;
20110;SDS011;10216;42.658;23.248;2023-01-16T07:01:20;94.40;;;49.63;;
20110;SDS011;10216;42.658;23.248;2023-01-16T07:03:45;63.07;;;32.77;;
20110;SDS011;10216;42.658;23.248;2023-01-16T07:06:10;65.87;;;34.33;;
20110;SDS011;10216;42.658;23.248;2023-01-16T07:08:37;64.47;;;35.73;;
20110;SDS011;10216;42.658;23.248;2023-01-16T07:11:03;61.77;;;35.07;;
20110;SDS011;10216;42.658;23.248;2023-01-16T07:13:28;70.70;;;36.27;;
20110;SDS011;10216;42.658;23.248;2023-01-16T07:15:54;79.83;;;39.80;;
20110;SDS011;10216;42.658;23.248;2023-01-16T07:18:38;75.03;;;38.90;;
20110;SDS011;10216;42.658;23.248;2023-01-16T07:21:23;77.43;;;37.37;;
20110;SDS011;10216;42.658;23.248;2023-01-16T07:24:08;81.13;;;33.97;;
20110;SDS011;10216;42.658;23.248;2023-01-16T07:26:36;62.03;;;29.47;;
20110;SDS011;10216;42.658;23.248;2023-01-16T07:29:02;66.60;;;31.70;;
20110;SDS011;10216;42.658;23.248;2023-01-16T07:31:28;96.33;;;38.03;;
20110;SDS011;10216;42.658;23.248;2023-01-16T07:33:54;83.57;;;36.00;;
20110;SDS011;10216;42.658;23.248;2023-01-16T07:36:19;90.23;;;38.60;;
20110;SDS011;10216;42.658;23.248;2023-01-16T07:38:45;81.93;;;36.40;;
20110;SDS011;10216;42.658;23.248;2023-01-16T07:41:10;94.60;;;38.63;;
20110;SDS011;10216;42.658;23.248;2023-01-16T07:43:35;76.77;;;32.90;;
20110;SDS011;10216;42.658;23.248;2023-01-16T07:46:00;79.53;;;36.67;;
20110;SDS011;10216;42.658;23.248;2023-01-16T07:48:26;80.93;;;37.03;;
20110;SDS011;10216;42.658;23.248;2023-01-16T07:50:52;70.83;;;35.73;;
20110;SDS011;10216;42.658;23.248;2023-01-16T07:53:18;71.23;;;35.23;;
20110;SDS011;10216;42.658;23.248;2023-01-16T07:55:46;82.97;;;34.90;;
20110;SDS011;10216;42.658;23.248;2023-01-16T07:58:11;77.33;;;34.07;;
20110;SDS011;10216;42.658;23.248;2023-01-16T08:00:37;74.40;;;37.53;;
20110;SDS011;10216;42.658;23.248;2023-01-16T08:03:02;80.07;;;37.43;;
20110;SDS011;10216;42.658;23.248;2023-01-16T08:05:27;80.30;;;38.07;;
20110;SDS011;10216;42.658;23.248;2023-01-16T08:07:53;79.03;;;37.27;;
20110;SDS011;10216;42.658;23.248;2023-01-16T08:10:18;75.00;;;35.80;;
20110;SDS011;10216;42.658;23.248;2023-01-16T08:12:43;81.20;;;39.10;;
20110;SDS011;10216;42.658;23.248;2023-01-16T08:15:08;79.13;;;39.27;;
20110;SDS011;10216;42.658;23.248;2023-01-16T08:17:34;90.50;;;43.77;;
20110;SDS011;10216;42.658;23.248;2023-01-16T08:20:02;86.03;;;42.20;;
20110;SDS011;10216;42.658;23.248;2023-01-16T08:22:27;85.73;;;42.83;;
20110;SDS011;10216;42.658;23.248;2023-01-16T08:24:53;90.37;;;42.93;;
20110;SDS011;10216;42.658;23.248;2023-01-16T08:27:18;83.87;;;41.90;;
20110;SDS011;10216;42.658;23.248;2023-01-16T08:29:43;80.73;;;42.37;;
20110;SDS011;10216;42.658;23.248;2023-01-16T08:32:09;106.17;;;56.30;;
20110;SDS011;10216;42.658;23.248;2023-01-16T08:34:34;105.03;;;52.70;;
20110;SDS011;10216;42.658;23.248;2023-01-16T08:36:59;84.77;;;43.27;;
20110;SDS011;10216;42.658;23.248;2023-01-16T08:39:27;83.07;;;44.47;;
20110;SDS011;10216;42.658;23.248;2023-01-16T08:41:52;89.50;;;46.93;;
20110;SDS011;10216;42.658;23.248;2023-01-16T08:44:36;87.93;;;44.60;;
20110;SDS011;10216;42.658;23.248;2023-01-16T08:47:22;89.20;;;47.93;;
20110;SDS011;10216;42.658;23.248;2023-01-16T08:50:10;91.77;;;48.93;;
20110;SDS011;10216;42.658;23.248;2023-01-16T08:52:55;93.97;;;49.77;;
20110;SDS011;10216;42.658;23.248;2023-01-16T08:55:20;94.97;;;48.40;;
20110;SDS011;10216;42.658;23.248;2023-01-16T08:57:45;89.97;;;47.57;;
20110;SDS011;10216;42.658;23.248;2023-01-16T09:00:11;82.90;;;45.73;;
20110;SDS011;10216;42.658;23.248;2023-01-16T09:02:36;91.33;;;49.13;;
20110;SDS011;10216;42.658;23.248;2023-01-16T09:05:03;85.73;;;48.50;;
20110;SDS011;10216;42.658;23.248;2023-01-16T09:07:28;93.23;;;48.43;;
20110;SDS011;10216;42.658;23.248;2023-01-16T09:09:54;89.93;;;51.60;;
20110;SDS011;10216;42.658;23.248;2023-01-16T09:12:19;87.13;;;47.53;;
20110;SDS011;10216;42.658;23.248;2023-01-16T09:15:03;84.30;;;42.27;;
20110;SDS011;10216;42.658;23.248;2023-01-16T09:17:29;83.30;;;43.10;;
20110;SDS011;10216;42.658;23.248;2023-01-16T09:19:54;72.93;;;40.53;;
20110;SDS011;10216;42.658;23.248;2023-01-16T09:22:19;69.03;;;39.30;;
20110;SDS011;10216;42.658;23.248;2023-01-16T09:24:45;64.10;;;37.10;;
20110;SDS011;10216;42.658;23.248;2023-01-16T09:27:10;66.30;;;37.90;;
20110;SDS011;10216;42.658;23.248;2023-01-16T09:29:37;70.43;;;37.87;;
20110;SDS011;10216;42.658;23.248;2023-01-16T09:32:03;67.33;;;36.97;;
20110;SDS011;10216;42.658;23.248;2023-01-16T09:34:33;67.93;;;37.67;;
20110;SDS011;10216;42.658;23.248;2023-01-16T09:36:59;59.63;;;36.27;;
20110;SDS011;10216;42.658;23.248;2023-01-16T09:39:24;61.40;;;35.60;;
20110;SDS011;10216;42.658;23.248;2023-01-16T09:44:53;53.87;;;33.07;;
20110;SDS011;10216;42.658;23.248;2023-01-16T09:47:20;50.97;;;31.23;;
20110;SDS011;10216;42.658;23.248;2023-01-16T09:49:48;56.20;;;34.10;;
20110;SDS011;10216;42.658;23.248;2023-01-16T09:52:19;49.50;;;30.33;;
20110;SDS011;10216;42.658;23.248;2023-01-16T09:55:15;48.53;;;30.23;;
20110;SDS011;10216;42.658;23.248;2023-01-16T09:58:02;43.87;;;25.73;;
20110;SDS011;10216;42.658;23.248;2023-01-16T10:00:46;39.83;;;25.87;;
20110;SDS011;10216;42.658;23.248;2023-01-16T10:03:12;38.97;;;26.10;;
20110;SDS011;10216;42.658;23.248;2023-01-16T10:05:44;41.50;;;26.87;;
20110;SDS011;10216;42.658;23.248;2023-01-16T10:08:19;37.30;;;24.63;;
20110;SDS011;10216;42.658;23.248;2023-01-16T10:10:49;35.50;;;23.63;;
20110;SDS011;10216;42.658;23.248;2023-01-16T10:26:18;28.97;;;19.53;;
20110;SDS011;10216;42.658;23.248;2023-01-16T10:31:41;26.50;;;16.80;;
20110;SDS011;10216;42.658;23.248;2023-01-16T10:34:12;36.63;;;22.87;;
20110;SDS011;10216;42.658;23.248;2023-01-16T10:36:40;66.80;;;37.23;;
20110;SDS011;10216;42.658;23.248;2023-01-16T10:39:08;22.23;;;16.50;;
20110;SDS011;10216;42.658;23.248;2023-01-16T10:41:38;25.63;;;17.50;;
20110;SDS011;10216;42.658;23.248;2023-01-16T10:44:27;28.93;;;19.20;;
20110;SDS011;10216;42.658;23.248;2023-01-16T10:47:13;23.80;;;16.33;;
20110;SDS011;10216;42.658;23.248;2023-01-16T10:49:58;32.43;;;19.90;;
20110;SDS011;10216;42.658;23.248;2023-01-16T10:52:23;29.20;;;21.40;;
20110;SDS011;10216;42.658;23.248;2023-01-16T10:54:50;27.17;;;17.53;;
20110;SDS011;10216;42.658;23.248;2023-01-16T10:57:16;35.07;;;23.20;;
20110;SDS011;10216;42.658;23.248;2023-01-16T10:59:42;36.10;;;23.93;;
20110;SDS011;10216;42.658;23.248;2023-01-16T11:02:19;27.20;;;16.87;;
20110;SDS011;10216;42.658;23.248;2023-01-16T11:04:48;20.67;;;14.77;;
20110;SDS011;10216;42.658;23.248;2023-01-16T11:07:14;23.00;;;14.40;;
20110;SDS011;10216;42.658;23.248;2023-01-16T11:09:40;28.83;;;19.60;;
20110;SDS011;10216;42.658;23.248;2023-01-16T11:12:08;26.13;;;17.50;;
20110;SDS011;10216;42.658;23.248;2023-01-16T11:14:54;26.07;;;16.93;;
20110;SDS011;10216;42.658;23.248;2023-01-16T11:17:39;29.73;;;19.30;;
20110;SDS011;10216;42.658;23.248;2023-01-16T11:20:34;29.53;;;19.47;;
20110;SDS011;10216;42.658;23.248;2023-01-16T11:25:34;19.60;;;13.73;;
20110;SDS011;10216;42.658;23.248;2023-01-16T11:28:01;18.80;;;12.03;;
20110;SDS011;10216;42.658;23.248;2023-01-16T11:30:31;19.43;;;13.73;;
20110;SDS011;10216;42.658;23.248;2023-01-16T11:32:57;22.53;;;15.67;;
20110;SDS011;10216;42.658;23.248;2023-01-16T11:35:33;19.97;;;14.07;;
20110;SDS011;10216;42.658;23.248;2023-01-16T11:37:58;18.17;;;12.17;;
20110;SDS011;10216;42.658;23.248;2023-01-16T11:40:25;21.77;;;15.33;;
20110;SDS011;10216;42.658;23.248;2023-01-16T11:42:52;24.37;;;16.70;;
20110;SDS011;10216;42.658;23.248;2023-01-16T11:45:39;25.30;;;16.83;;
20110;SDS011;10216;42.658;23.248;2023-01-16T11:48:23;30.87;;;21.50;;
20110;SDS011;10216;42.658;23.248;2023-01-16T11:50:57;30.80;;;19.23;;
20110;SDS011;10216;42.658;23.248;2023-01-16T11:53:28;27.47;;;19.60;;
20110;SDS011;10216;42.658;23.248;2023-01-16T12:03:39;36.80;;;23.93;;
20110;SDS011;10216;42.658;23.248;2023-01-16T12:06:11;39.23;;;25.77;;
20110;SDS011;10216;42.658;23.248;2023-01-16T12:14:23;35.67;;;23.87;;
20110;SDS011;10216;42.658;23.248;2023-01-16T12:22:25;39.43;;;26.47;;
20110;SDS011;10216;42.658;23.248;2023-01-16T12:24:58;40.90;;;27.10;;
20110;SDS011;10216;42.658;23.248;2023-01-16T12:35:17;32.40;;;21.70;;
20110;SDS011;10216;42.658;23.248;2023-01-16T12:53:39;45.90;;;31.67;;
20110;SDS011;10216;42.658;23.248;2023-01-16T12:56:17;32.87;;;22.43;;
20110;SDS011;10216;42.658;23.248;2023-01-16T12:58:50;32.83;;;22.70;;
20110;SDS011;10216;42.658;23.248;2023-01-16T13:01:21;35.20;;;23.37;;
20110;SDS011;10216;42.658;23.248;2023-01-16T13:04:10;31.07;;;20.57;;
20110;SDS011;10216;42.658;23.248;2023-01-16T13:12:21;32.43;;;22.80;;
20110;SDS011;10216;42.658;23.248;2023-01-16T13:15:25;36.43;;;23.03;;
20110;SDS011;10216;42.658;23.248;2023-01-16T13:20:33;52.83;;;33.30;;
20110;SDS011;10216;42.658;23.248;2023-01-16T13:23:03;39.17;;;27.13;;
20110;SDS011;10216;42.658;23.248;2023-01-16T13:25:31;31.80;;;22.00;;
20110;SDS011;10216;42.658;23.248;2023-01-16T13:28:02;34.67;;;22.27;;
20110;SDS011;10216;42.658;23.248;2023-01-16T13:30:30;75.17;;;36.10;;
20110;SDS011;10216;42.658;23.248;2023-01-16T13:33:07;41.47;;;24.77;;
20110;SDS011;10216;42.658;23.248;2023-01-16T13:38:37;33.57;;;25.20;;
20110;SDS011;10216;42.658;23.248;2023-01-16T13:46:33;34.60;;;20.40;;
20110;SDS011;10216;42.658;23.248;2023-01-16T13:49:00;29.40;;;19.90;;
20110;SDS011;10216;42.658;23.248;2023-01-16T13:51:26;30.63;;;20.60;;
20110;SDS011;10216;42.658;23.248;2023-01-16T13:53:55;34.30;;;22.33;;
20110;SDS011;10216;42.658;23.248;2023-01-16T13:56:24;35.80;;;22.27;;
20110;SDS011;10216;42.658;23.248;2023-01-16T13:58:58;35.93;;;21.63;;
20110;SDS011;10216;42.658;23.248;2023-01-16T14:01:32;36.73;;;23.43;;
20110;SDS011;10216;42.658;23.248;2023-01-16T14:06:45;31.97;;;20.17;;
20110;SDS011;10216;42.658;23.248;2023-01-16T14:14:33;79.13;;;46.47;;
20110;SDS011;10216;42.658;23.248;2023-01-16T14:17:21;34.90;;;22.03;;
20110;SDS011;10216;42.658;23.248;2023-01-16T14:19:52;37.43;;;23.83;;
20110;SDS011;10216;42.658;23.248;2023-01-16T14:22:19;39.40;;;26.07;;
20110;SDS011;10216;42.658;23.248;2023-01-16T14:24:45;34.63;;;21.80;;
20110;SDS011;10216;42.658;23.248;2023-01-16T14:27:15;33.57;;;21.60;;
20110;SDS011;10216;42.658;23.248;2023-01-16T14:29:45;33.60;;;22.90;;
20110;SDS011;10216;42.658;23.248;2023-01-16T14:34:38;38.47;;;24.67;;
20110;SDS011;10216;42.658;23.248;2023-01-16T14:37:53;36.00;;;23.83;;
20110;SDS011;10216;42.658;23.248;2023-01-16T14:39:59;31.67;;;23.10;;
20110;SDS011;10216;42.658;23.248;2023-01-16T14:42:36;33.30;;;23.00;;
20110;SDS011;10216;42.658;23.248;2023-01-16T14:45:34;32.07;;;21.80;;
20110;SDS011;10216;42.658;23.248;2023-01-16T14:56:38;37.63;;;24.33;;
20110;SDS011;10216;42.658;23.248;2023-01-16T14:59:14;36.97;;;23.23;;
20110;SDS011;10216;42.658;23.248;2023-01-16T15:01:47;36.67;;;24.17;;
20110;SDS011;10216;42.658;23.248;2023-01-16T15:07:18;44.30;;;27.83;;
20110;SDS011;10216;42.658;23.248;2023-01-16T15:09:46;38.60;;;27.60;;
20110;SDS011;10216;42.658;23.248;2023-01-16T15:12:12;42.90;;;27.37;;
20110;SDS011;10216;42.658;23.248;2023-01-16T15:14:38;40.67;;;26.50;;
20110;SDS011;10216;42.658;23.248;2023-01-16T15:22:44;38.77;;;26.03;;
20110;SDS011;10216;42.658;23.248;2023-01-16T15:25:20;43.40;;;30.73;;
20110;SDS011;10216;42.658;23.248;2023-01-16T15:27:49;39.07;;;24.70;;
20110;SDS011;10216;42.658;23.248;2023-01-16T15:30:16;35.90;;;23.50;;
20110;SDS011;10216;42.658;23.248;2023-01-16T15:32:51;37.67;;;23.93;;
20110;SDS011;10216;42.658;23.248;2023-01-16T15:35:17;33.47;;;22.97;;
20110;SDS011;10216;42.658;23.248;2023-01-16T15:37:53;41.53;;;24.70;;
20110;SDS011;10216;42.658;23.248;2023-01-16T15:40:26;39.90;;;28.93;;
20110;SDS011;10216;42.658;23.248;2023-01-16T15:42:52;35.80;;;26.83;;
20110;SDS011;10216;42.658;23.248;2023-01-16T15:45:36;38.50;;;26.67;;
20110;SDS011;10216;42.658;23.248;2023-01-16T15:48:40;41.17;;;24.37;;
20110;SDS011;10216;42.658;23.248;2023-01-16T15:51:08;43.13;;;28.43;;
20110;SDS011;10216;42.658;23.248;2023-01-16T15:53:35;43.37;;;30.30;;
20110;SDS011;10216;42.658;23.248;2023-01-16T15:56:06;43.17;;;28.90;;
20110;SDS011;10216;42.658;23.248;2023-01-16T15:58:32;42.50;;;28.17;;
20110;SDS011;10216;42.658;23.248;2023-01-16T16:00:59;46.20;;;31.27;;
20110;SDS011;10216;42.658;23.248;2023-01-16T16:03:27;40.73;;;27.67;;
20110;SDS011;10216;42.658;23.248;2023-01-16T16:05:54;40.37;;;27.47;;
20110;SDS011;10216;42.658;23.248;2023-01-16T16:08:21;41.03;;;27.17;;
20110;SDS011;10216;42.658;23.248;2023-01-16T16:10:47;42.17;;;27.57;;
20110;SDS011;10216;42.658;23.248;2023-01-16T16:13:35;38.43;;;24.80;;
20110;SDS011;10216;42.658;23.248;2023-01-16T16:16:03;45.47;;;28.80;;
20110;SDS011;10216;42.658;23.248;2023-01-16T16:18:56;59.37;;;38.97;;
20110;SDS011;10216;42.658;23.248;2023-01-16T16:21:23;49.20;;;32.13;;
20110;SDS011;10216;42.658;23.248;2023-01-16T16:23:56;44.57;;;28.30;;
20110;SDS011;10216;42.658;23.248;2023-01-16T16:26:21;40.77;;;28.10;;
20110;SDS011;10216;42.658;23.248;2023-01-16T16:28:47;44.67;;;26.97;;
20110;SDS011;10216;42.658;23.248;2023-01-16T16:33:54;47.00;;;31.00;;
20110;SDS011;10216;42.658;23.248;2023-01-16T16:36:20;49.50;;;31.53;;
20110;SDS011;10216;42.658;23.248;2023-01-16T16:38:46;47.87;;;30.53;;
20110;SDS011;10216;42.658;23.248;2023-01-16T16:44:01;43.23;;;29.17;;
20110;SDS011;10216;42.658;23.248;2023-01-16T16:51:32;39.70;;;26.27;;
20110;SDS011;10216;42.658;23.248;2023-01-16T16:53:58;44.23;;;28.40;;
20110;SDS011;10216;42.658;23.248;2023-01-16T16:56:25;40.57;;;26.40;;
20110;SDS011;10216;42.658;23.248;2023-01-16T16:58:51;44.57;;;28.43;;
20110;SDS011;10216;42.658;23.248;2023-01-16T17:01:18;36.70;;;25.30;;
20110;SDS011;10216;42.658;23.248;2023-01-16T17:03:44;40.73;;;26.67;;
20110;SDS011;10216;42.658;23.248;2023-01-16T17:06:15;42.60;;;28.50;;
20110;SDS011;10216;42.658;23.248;2023-01-16T17:08:41;39.87;;;28.07;;
20110;SDS011;10216;42.658;23.248;2023-01-16T17:11:08;40.03;;;24.53;;